createdAt,value
2022-12-04T00:02:15.937Z,19.65
2022-12-04T00:04:42.911Z,19.48
2022-12-04T00:07:09.910Z,19.48
2022-12-04T00:09:36.841Z,19.02
2022-12-04T00:12:04.002Z,18.35
2022-12-04T00:14:31.236Z,18.00
2022-12-04T00:16:58.548Z,19.65
2022-12-04T00:19:25.523Z,18.92
2022-12-04T00:21:52.557Z,20.15
2022-12-04T00:24:19.519Z,18.73
2022-12-04T00:26:46.443Z,18.55
2022-12-04T00:29:13.464Z,17.08
2022-12-04T00:31:40.860Z,18.40
2022-12-04T00:34:08.453Z,19.17
2022-12-04T00:36:35.506Z,18.95
2022-12-04T00:39:03.057Z,17.90
2022-12-04T00:41:31.427Z,17.88
2022-12-04T00:44:02.503Z,18.38
2022-12-04T00:46:30.193Z,18.60
2022-12-04T00:48:59.048Z,18.75
2022-12-04T00:51:26.528Z,17.73
2022-12-04T00:53:54.312Z,19.50
2022-12-04T00:56:24.839Z,17.95
2022-12-04T00:58:57.037Z,17.88
2022-12-04T01:01:25.652Z,17.75
2022-12-04T01:03:53.803Z,18.83
2022-12-04T01:06:24.182Z,19.70
2022-12-04T01:08:53.646Z,18.92
2022-12-04T01:11:21.618Z,18.65
2022-12-04T01:13:49.109Z,18.42
2022-12-04T01:16:24.591Z,18.83
2022-12-04T01:18:52.209Z,18.80
2022-12-04T01:21:19.163Z,17.95
2022-12-04T01:23:46.432Z,18.70
2022-12-04T01:26:13.420Z,19.05
2022-12-04T01:28:40.570Z,18.83
2022-12-04T01:31:13.414Z,18.23
2022-12-04T01:33:41.613Z,19.35
2022-12-04T01:36:11.418Z,19.13
2022-12-04T01:38:38.994Z,19.75
2022-12-04T01:41:06.538Z,18.00
2022-12-04T01:43:36.035Z,18.95
2022-12-04T01:46:03.570Z,18.83
2022-12-04T01:48:52.043Z,19.13
2022-12-04T01:51:23.830Z,18.85
2022-12-04T01:53:56.042Z,17.60
2022-12-04T01:56:29.486Z,18.15
2022-12-04T01:58:58.927Z,18.88
2022-12-04T02:01:31.858Z,18.70
2022-12-04T02:04:00.743Z,18.35
2022-12-04T02:06:27.634Z,19.33
2022-12-04T02:08:54.620Z,19.67
2022-12-04T02:11:38.022Z,18.27
2022-12-04T02:14:13.549Z,20.48
2022-12-04T02:16:56.528Z,19.17
2022-12-04T02:20:05.410Z,20.27
2022-12-04T02:23:07.934Z,20.08
2022-12-04T02:26:07.135Z,19.70
2022-12-04T02:28:56.227Z,20.38
2022-12-04T02:31:30.930Z,19.63
2022-12-04T02:34:14.390Z,21.65
2022-12-04T02:36:49.138Z,20.50
2022-12-04T02:39:21.517Z,21.05
2022-12-04T02:41:57.775Z,22.50
2022-12-04T02:44:30.601Z,22.85
2022-12-04T02:47:02.418Z,22.63
2022-12-04T02:49:37.973Z,22.60
2022-12-04T02:52:10.617Z,23.15
2022-12-04T02:54:45.174Z,21.92
2022-12-04T02:57:16.930Z,23.20
2022-12-04T02:59:46.342Z,23.75
2022-12-04T03:02:28.075Z,24.08
2022-12-04T03:04:58.143Z,22.58
2022-12-04T03:07:34.309Z,24.42
2022-12-04T03:10:06.415Z,24.15
2022-12-04T03:12:42.143Z,23.98
2022-12-04T03:15:18.016Z,22.65
2022-12-04T03:17:57.690Z,23.05
2022-12-04T03:20:25.856Z,25.02
2022-12-04T03:22:59.978Z,23.98
2022-12-04T03:25:35.251Z,23.75
2022-12-04T03:28:08.141Z,23.52
2022-12-04T03:30:45.811Z,23.48
2022-12-04T03:33:18.276Z,24.88
2022-12-04T03:35:57.282Z,23.70
2022-12-04T03:38:39.286Z,23.52
2022-12-04T03:41:29.563Z,24.27
2022-12-04T03:44:27.762Z,23.13
2022-12-04T03:47:14.885Z,22.50
2022-12-04T03:49:51.912Z,23.65
2022-12-04T03:52:28.062Z,22.42
2022-12-04T03:55:03.135Z,21.23
2022-12-04T03:57:37.254Z,22.52
2022-12-04T04:02:39.852Z,20.98
2022-12-04T04:05:10.009Z,22.10
2022-12-04T04:08:23.866Z,23.02
2022-12-04T04:10:53.480Z,22.30
2022-12-04T04:13:44.391Z,22.55
2022-12-04T04:16:34.919Z,21.75
2022-12-04T04:19:22.484Z,22.75
2022-12-04T04:22:11.198Z,22.92
2022-12-04T04:24:59.762Z,23.08
2022-12-04T04:27:26.731Z,22.60
2022-12-04T04:29:54.077Z,21.90
2022-12-04T04:32:37.017Z,23.13
2022-12-04T04:35:28.622Z,22.05
2022-12-04T04:38:15.043Z,22.27
2022-12-04T04:40:58.087Z,22.05
2022-12-04T04:43:47.641Z,22.35
2022-12-04T04:46:21.309Z,23.20
2022-12-04T04:48:52.134Z,23.35
2022-12-04T04:51:20.431Z,22.42
2022-12-04T04:53:51.079Z,21.67
2022-12-04T04:56:19.324Z,23.42
2022-12-04T04:58:46.262Z,23.73
2022-12-04T05:01:22.880Z,23.92
2022-12-04T05:03:49.901Z,23.73
2022-12-04T05:06:16.827Z,23.92
2022-12-04T05:08:44.425Z,33.58
2022-12-04T05:11:14.094Z,25.17
2022-12-04T05:13:41.718Z,23.35
2022-12-04T05:16:12.528Z,25.02
2022-12-04T05:18:40.131Z,25.35
2022-12-04T05:21:16.535Z,25.52
2022-12-04T05:23:43.771Z,24.67
2022-12-04T05:26:12.118Z,24.83
2022-12-04T05:28:41.107Z,24.55
2022-12-04T05:31:08.171Z,23.38
2022-12-04T05:33:35.177Z,25.23
2022-12-04T05:36:09.673Z,23.63
2022-12-04T05:38:37.247Z,22.58
2022-12-04T05:41:06.061Z,22.80
2022-12-04T05:43:34.048Z,23.30
2022-12-04T05:46:02.613Z,24.48
2022-12-04T05:48:29.764Z,24.20
2022-12-04T05:50:56.734Z,23.60
2022-12-04T05:53:24.235Z,24.30
2022-12-04T05:55:58.803Z,23.88
2022-12-04T05:58:26.317Z,23.92
2022-12-04T06:00:53.379Z,23.20
2022-12-04T06:03:20.773Z,24.98
2022-12-04T06:05:47.908Z,25.08
2022-12-04T06:08:15.057Z,25.92
2022-12-04T06:10:42.270Z,25.80
2022-12-04T06:13:09.212Z,25.98
2022-12-04T06:15:39.758Z,28.33
2022-12-04T06:18:07.046Z,28.20
2022-12-04T06:20:34.586Z,27.85
2022-12-04T06:23:01.850Z,27.55
2022-12-04T06:25:28.903Z,27.65
2022-12-04T06:27:55.972Z,26.15
2022-12-04T06:30:23.290Z,24.58
2022-12-04T06:32:50.291Z,28.50
2022-12-04T06:35:17.235Z,30.63
2022-12-04T06:37:44.257Z,28.10
2022-12-04T06:40:11.623Z,25.55
2022-12-04T06:42:38.795Z,26.73
2022-12-04T06:45:06.666Z,25.15
2022-12-04T06:47:36.289Z,25.05
2022-12-04T06:50:04.742Z,25.15
2022-12-04T06:52:33.951Z,25.02
2022-12-04T06:55:01.011Z,25.58
2022-12-04T06:57:27.933Z,25.67
2022-12-04T06:59:55.155Z,24.50
2022-12-04T07:02:22.970Z,26.13
2022-12-04T07:04:50.002Z,26.20
2022-12-04T07:07:16.913Z,26.17
2022-12-04T07:09:45.660Z,25.95
2022-12-04T07:12:12.611Z,25.23
2022-12-04T07:14:39.692Z,25.45
2022-12-04T07:17:06.753Z,24.67
2022-12-04T07:19:33.743Z,26.65
2022-12-04T07:22:00.649Z,25.05
2022-12-04T07:24:27.657Z,26.02
2022-12-04T07:26:54.615Z,27.80
2022-12-04T07:29:21.567Z,26.27
2022-12-04T07:31:49.062Z,26.10
2022-12-04T07:34:16.041Z,25.35
2022-12-04T07:36:42.979Z,25.90
2022-12-04T07:39:10.425Z,25.02
2022-12-04T07:41:37.443Z,25.73
2022-12-04T07:44:07.385Z,24.77
2022-12-04T07:46:34.496Z,25.13
2022-12-04T07:49:01.457Z,25.65
2022-12-04T07:51:29.926Z,24.80
2022-12-04T07:54:02.625Z,25.77
2022-12-04T07:56:30.081Z,25.80
2022-12-04T07:58:57.030Z,25.73
2022-12-04T08:01:24.628Z,25.83
2022-12-04T08:03:55.078Z,26.63
2022-12-04T08:06:24.389Z,24.95
2022-12-04T08:08:52.750Z,29.60
2022-12-04T08:11:24.545Z,26.25
2022-12-04T08:13:59.600Z,27.23
2022-12-04T08:16:28.119Z,30.95
2022-12-04T08:18:55.713Z,26.88
2022-12-04T08:21:25.259Z,28.30
2022-12-04T08:23:54.714Z,29.20
2022-12-04T08:26:23.918Z,28.83
2022-12-04T08:28:54.500Z,26.23
2022-12-04T08:31:26.913Z,26.50
2022-12-04T08:33:55.747Z,27.17
2022-12-04T08:36:23.237Z,26.65
2022-12-04T08:38:51.071Z,25.75
2022-12-04T08:41:21.414Z,27.17
2022-12-04T08:43:48.417Z,24.25
2022-12-04T08:46:19.179Z,26.67
2022-12-04T08:48:47.256Z,25.95
2022-12-04T08:51:22.695Z,28.25
2022-12-04T08:53:54.285Z,27.13
2022-12-04T08:56:21.344Z,26.65
2022-12-04T08:58:48.628Z,27.20
2022-12-04T09:01:16.036Z,27.13
2022-12-04T09:03:43.729Z,26.95
2022-12-04T09:06:13.095Z,27.45
2022-12-04T09:08:40.790Z,27.83
2022-12-04T09:11:12.189Z,25.45
2022-12-04T09:13:40.660Z,25.35
2022-12-04T09:16:14.714Z,25.15
2022-12-04T09:21:11.210Z,22.95
2022-12-04T09:23:39.366Z,25.10
2022-12-04T09:26:19.124Z,25.58
2022-12-04T09:28:46.914Z,26.17
2022-12-04T09:31:13.979Z,26.48
2022-12-04T09:33:41.124Z,26.73
2022-12-04T09:36:08.319Z,26.38
2022-12-04T09:38:35.308Z,24.15
2022-12-04T09:41:13.505Z,26.73
2022-12-04T09:44:00.726Z,25.38
2022-12-04T09:46:38.382Z,26.90
2022-12-04T09:49:21.420Z,25.63
2022-12-04T09:51:49.782Z,25.50
2022-12-04T09:54:20.947Z,26.88
2022-12-04T09:56:55.774Z,25.23
2022-12-04T09:59:26.777Z,24.90
2022-12-04T10:02:18.839Z,24.85
2022-12-04T10:04:45.980Z,27.58
2022-12-04T10:07:26.425Z,26.98
2022-12-04T10:09:59.337Z,26.02
2022-12-04T10:12:49.337Z,25.33
2022-12-04T10:15:35.185Z,24.23
2022-12-04T10:18:27.761Z,22.98
2022-12-04T10:21:26.984Z,23.00
2022-12-04T10:24:18.339Z,23.58
2022-12-04T10:26:47.203Z,24.05
2022-12-04T10:29:22.369Z,23.50
2022-12-04T10:31:51.860Z,24.02
2022-12-04T10:34:25.754Z,26.15
2022-12-04T10:36:55.209Z,25.92
2022-12-04T10:39:26.755Z,28.02
2022-12-04T10:42:29.034Z,25.83
2022-12-04T10:44:56.828Z,27.73
2022-12-04T10:47:24.840Z,24.05
2022-12-04T10:50:02.709Z,24.05
2022-12-04T10:52:29.699Z,24.65
2022-12-04T10:55:00.912Z,24.60
2022-12-04T10:57:46.546Z,24.55
2022-12-04T11:00:33.846Z,23.20
2022-12-04T11:03:04.229Z,24.60
2022-12-04T11:05:44.361Z,24.45
2022-12-04T11:08:22.540Z,24.55
2022-12-04T11:10:59.147Z,23.85
2022-12-04T11:13:26.585Z,24.73
2022-12-04T11:15:55.685Z,23.60
2022-12-04T11:18:30.075Z,24.70
2022-12-04T11:21:00.990Z,25.45
2022-12-04T11:23:32.486Z,24.92
2022-12-04T11:26:05.566Z,24.67
2022-12-04T11:28:41.552Z,25.05
2022-12-04T11:31:15.786Z,22.52
2022-12-04T11:33:54.359Z,22.77
2022-12-04T11:36:24.914Z,23.75
2022-12-04T11:38:54.412Z,26.90
2022-12-04T11:41:32.211Z,23.75
2022-12-04T11:44:01.115Z,22.80
2022-12-04T11:46:32.690Z,22.92
2022-12-04T11:49:00.658Z,25.27
2022-12-04T11:51:48.523Z,23.70
2022-12-04T11:54:23.070Z,21.70
2022-12-04T11:57:05.120Z,24.10
2022-12-04T11:59:47.500Z,22.52
2022-12-04T12:02:36.544Z,23.10
2022-12-04T12:05:32.122Z,24.55
2022-12-04T12:08:24.701Z,24.02
2022-12-04T12:11:04.394Z,24.95
2022-12-04T12:14:16.340Z,22.10
2022-12-04T12:16:55.214Z,26.15
2022-12-04T12:19:31.082Z,23.92
2022-12-04T12:22:00.778Z,29.90
2022-12-04T12:24:46.978Z,26.00
2022-12-04T12:27:30.967Z,23.30
2022-12-04T12:30:08.610Z,26.85
2022-12-04T12:33:03.952Z,25.48
2022-12-04T12:35:52.619Z,24.40
2022-12-04T12:38:33.941Z,24.48
2022-12-04T12:41:06.358Z,23.38
2022-12-04T12:43:38.363Z,23.98
2022-12-04T12:46:15.709Z,22.73
2022-12-04T12:49:04.278Z,25.10
2022-12-04T12:51:34.231Z,22.77
2022-12-04T12:54:33.394Z,26.02
2022-12-04T12:57:10.406Z,23.38
2022-12-04T12:59:45.777Z,24.38
2022-12-04T13:02:44.790Z,24.48
2022-12-04T13:05:14.356Z,20.48
2022-12-04T13:07:44.363Z,22.35
2022-12-04T13:10:15.086Z,22.35
2022-12-04T13:13:11.045Z,22.60
2022-12-04T13:15:59.474Z,21.67
2022-12-04T13:18:29.438Z,21.52
2022-12-04T13:21:00.662Z,28.88
2022-12-04T13:23:57.762Z,30.02
2022-12-04T13:27:01.538Z,28.48
2022-12-04T13:29:43.387Z,24.95
2022-12-04T13:32:23.930Z,30.92
2022-12-04T13:35:35.539Z,24.17
2022-12-04T13:38:22.187Z,23.60
2022-12-04T13:40:57.861Z,23.20
2022-12-04T13:43:33.670Z,21.35
2022-12-04T13:46:25.463Z,23.25
2022-12-04T13:48:52.765Z,23.15
2022-12-04T13:51:24.018Z,22.23
2022-12-04T13:54:13.412Z,23.98
2022-12-04T13:56:46.183Z,23.75
2022-12-04T13:59:23.718Z,23.67
2022-12-04T14:02:02.212Z,22.30
2022-12-04T14:04:39.109Z,27.08
2022-12-04T14:09:41.776Z,25.42
2022-12-04T14:12:13.987Z,31.88
2022-12-04T14:14:52.446Z,26.92
2022-12-04T14:17:25.899Z,26.23
2022-12-04T14:20:00.759Z,25.13
2022-12-04T14:22:42.798Z,27.10
2022-12-04T14:25:12.723Z,27.35
2022-12-04T14:27:45.117Z,23.38
2022-12-04T14:30:25.059Z,25.73
2022-12-04T14:33:02.689Z,25.50
2022-12-04T14:35:29.864Z,25.17
2022-12-04T14:38:00.624Z,26.70
2022-12-04T14:40:31.218Z,27.10
2022-12-04T14:42:59.389Z,24.23
2022-12-04T14:45:45.439Z,26.02
2022-12-04T14:48:18.862Z,27.38
2022-12-04T14:51:18.557Z,26.00
2022-12-04T14:53:50.970Z,25.80
2022-12-04T14:57:14.227Z,24.08
2022-12-04T14:59:51.633Z,24.05
2022-12-04T15:02:43.462Z,25.70
2022-12-04T15:05:27.371Z,25.05
2022-12-04T15:08:05.933Z,25.48
2022-12-04T15:10:53.495Z,27.95
2022-12-04T15:13:31.641Z,26.92
2022-12-04T15:16:07.808Z,26.45
2022-12-04T15:18:39.430Z,24.45
2022-12-04T15:21:10.572Z,26.67
2022-12-04T15:23:41.532Z,25.00
2022-12-04T15:26:14.031Z,27.05
2022-12-04T15:28:46.781Z,25.52
2022-12-04T15:31:21.396Z,25.00
2022-12-04T15:33:52.252Z,25.38
2022-12-04T15:36:25.071Z,26.17
2022-12-04T15:38:53.102Z,25.75
2022-12-04T15:41:37.294Z,25.95
2022-12-04T15:44:23.377Z,29.10
2022-12-04T15:46:50.402Z,30.63
2022-12-04T15:49:24.805Z,30.25
2022-12-04T15:51:51.875Z,30.00
2022-12-04T15:54:25.318Z,31.17
2022-12-04T15:57:04.938Z,27.42
2022-12-04T15:59:34.598Z,26.73
2022-12-04T16:02:20.859Z,27.48
2022-12-04T16:04:48.013Z,28.30
2022-12-04T16:07:24.748Z,30.70
2022-12-04T16:10:20.604Z,31.23
2022-12-04T16:12:53.929Z,25.90
2022-12-04T16:15:21.824Z,25.88
2022-12-04T16:17:49.237Z,26.52
2022-12-04T16:20:16.311Z,25.35
2022-12-04T16:22:43.857Z,25.55
2022-12-04T16:25:12.626Z,25.05
2022-12-04T16:27:39.565Z,25.92
2022-12-04T16:30:07.062Z,26.45
2022-12-04T16:32:34.770Z,28.27
2022-12-04T16:35:01.896Z,26.77
2022-12-04T16:37:31.737Z,29.05
2022-12-04T16:39:58.907Z,27.20
2022-12-04T16:42:29.256Z,26.25
2022-12-04T16:44:56.717Z,26.88
2022-12-04T16:47:24.032Z,26.58
2022-12-04T16:49:52.306Z,26.88
2022-12-04T16:52:20.594Z,27.10
2022-12-04T16:54:47.614Z,27.52
2022-12-04T16:57:14.535Z,27.40
2022-12-04T16:59:41.538Z,29.73
2022-12-04T17:02:16.071Z,26.08
2022-12-04T17:04:43.151Z,26.90
2022-12-04T17:07:10.143Z,27.65
2022-12-04T17:09:37.186Z,26.75
2022-12-04T17:12:04.265Z,26.35
2022-12-04T17:14:31.231Z,26.77
2022-12-04T17:16:58.864Z,28.20
2022-12-04T17:19:25.881Z,27.63
2022-12-04T17:21:52.944Z,29.88
2022-12-04T17:24:19.851Z,27.67
2022-12-04T17:26:46.904Z,27.77
2022-12-04T17:29:13.842Z,27.75
2022-12-04T17:31:40.821Z,28.65
2022-12-04T17:34:07.838Z,28.17
2022-12-04T17:36:34.761Z,31.25
2022-12-04T17:39:02.059Z,27.70
2022-12-04T17:41:29.564Z,30.00
2022-12-04T17:43:59.170Z,27.20
2022-12-04T17:46:26.186Z,27.50
2022-12-04T17:48:56.808Z,28.10
2022-12-04T17:51:24.905Z,27.50
2022-12-04T17:53:52.400Z,27.33
2022-12-04T17:56:21.783Z,27.15
2022-12-04T17:58:49.063Z,26.00
2022-12-04T18:01:19.470Z,29.02
2022-12-04T18:03:58.920Z,28.13
2022-12-04T18:06:31.730Z,26.42
2022-12-04T18:08:59.184Z,25.58
2022-12-04T18:11:28.778Z,23.80
2022-12-04T18:14:07.136Z,25.75
2022-12-04T18:16:40.685Z,27.00
2022-12-04T18:19:08.098Z,25.10
2022-12-04T18:21:35.342Z,26.83
2022-12-04T18:24:04.233Z,27.58
2022-12-04T18:26:37.373Z,25.45
2022-12-04T18:29:04.866Z,26.07
2022-12-04T18:31:32.432Z,26.65
2022-12-04T18:33:59.882Z,27.20
2022-12-04T18:36:29.650Z,26.58
2022-12-04T18:38:59.074Z,26.27
2022-12-04T18:41:27.128Z,29.00
2022-12-04T18:43:54.790Z,30.50
2022-12-04T18:46:22.382Z,31.80
2022-12-04T18:48:52.922Z,33.42
2022-12-04T18:51:37.991Z,27.65
2022-12-04T18:54:09.967Z,28.02
2022-12-04T18:56:37.197Z,27.58
2022-12-04T18:59:12.713Z,25.55
2022-12-04T19:01:41.357Z,26.50
2022-12-04T19:04:10.669Z,25.77
2022-12-04T19:06:43.423Z,26.30
2022-12-04T19:09:13.310Z,26.58
2022-12-04T19:11:41.620Z,29.77
2022-12-04T19:14:20.703Z,27.35
2022-12-04T19:16:49.934Z,29.13
2022-12-04T19:19:17.799Z,29.83
2022-12-04T19:21:44.936Z,31.45
2022-12-04T19:24:12.242Z,30.38
2022-12-04T19:26:39.739Z,30.77
2022-12-04T19:29:07.411Z,32.60
2022-12-04T19:31:36.652Z,30.42
2022-12-04T19:34:04.409Z,30.98
2022-12-04T19:36:32.419Z,30.80
2022-12-04T19:39:00.344Z,30.70
2022-12-04T19:41:30.197Z,33.30
2022-12-04T19:44:00.711Z,30.83
2022-12-04T19:46:30.917Z,31.40
2022-12-04T19:49:02.130Z,31.25
2022-12-04T19:51:32.301Z,32.75
2022-12-04T19:53:59.974Z,34.35
2022-12-04T19:56:28.861Z,30.88
2022-12-04T19:58:59.501Z,32.10
2022-12-04T20:01:28.732Z,30.58
2022-12-04T20:03:56.828Z,27.85
2022-12-04T20:06:27.410Z,32.90
2022-12-04T20:08:56.830Z,32.70
2022-12-04T20:11:24.385Z,32.72
2022-12-04T20:13:55.619Z,30.90
2022-12-04T20:16:27.381Z,28.33
2022-12-04T20:18:54.896Z,32.78
2022-12-04T20:21:26.347Z,29.20
2022-12-04T20:23:54.338Z,29.38
2022-12-04T20:26:24.174Z,26.92
2022-12-04T20:28:52.203Z,30.92
2022-12-04T20:31:34.030Z,31.52
2022-12-04T20:34:03.150Z,31.52
2022-12-04T20:36:31.441Z,32.83
2022-12-04T20:38:59.525Z,32.00
2022-12-04T20:41:29.304Z,31.23
2022-12-04T20:43:59.943Z,32.53
2022-12-04T20:46:31.686Z,30.77
2022-12-04T20:49:01.222Z,33.05
2022-12-04T20:51:42.576Z,34.50
2022-12-04T20:54:14.066Z,34.10
2022-12-04T20:56:41.306Z,33.17
2022-12-04T20:59:12.633Z,31.90
2022-12-04T21:01:40.386Z,30.45
2022-12-04T21:04:07.780Z,30.70
2022-12-04T21:06:37.567Z,29.10
2022-12-04T21:09:19.919Z,29.45
2022-12-04T21:11:55.412Z,28.80
2022-12-04T21:14:43.764Z,28.25
2022-12-04T21:17:16.637Z,28.35
2022-12-04T21:19:44.315Z,25.73
2022-12-04T21:22:11.238Z,29.20
2022-12-04T21:24:39.265Z,28.38
2022-12-04T21:27:07.897Z,30.17
2022-12-04T21:29:38.428Z,28.67
2022-12-04T21:32:06.613Z,29.95
2022-12-04T21:34:33.985Z,28.45
2022-12-04T21:37:01.095Z,29.40
2022-12-04T21:39:28.042Z,30.00
2022-12-04T21:42:13.871Z,30.15
2022-12-04T21:44:40.908Z,29.85
2022-12-04T21:47:07.901Z,30.08
2022-12-04T21:49:34.810Z,30.27
2022-12-04T21:52:01.767Z,31.77
2022-12-04T21:54:29.145Z,32.17
2022-12-04T21:56:56.889Z,30.90
2022-12-04T21:59:25.029Z,31.17
2022-12-04T22:01:53.090Z,31.48
2022-12-04T22:04:20.715Z,29.52
2022-12-04T22:06:47.789Z,31.65
2022-12-04T22:09:15.066Z,29.52
2022-12-04T22:11:43.011Z,31.88
2022-12-04T22:14:11.618Z,30.42
2022-12-04T22:16:42.791Z,30.08
2022-12-04T22:19:11.621Z,30.10
2022-12-04T22:21:39.268Z,31.40
2022-12-04T22:24:06.839Z,30.83
2022-12-04T22:26:34.120Z,32.47
2022-12-04T22:29:01.165Z,30.27
2022-12-04T22:31:30.199Z,32.63
2022-12-04T22:33:59.199Z,30.40
2022-12-04T22:36:34.864Z,30.50
2022-12-04T22:39:10.399Z,30.17
2022-12-04T22:41:38.085Z,29.38
2022-12-04T22:44:05.667Z,28.88
2022-12-04T22:46:33.046Z,30.98
2022-12-04T22:49:00.338Z,30.40
2022-12-04T22:51:28.569Z,33.22
2022-12-04T22:53:58.114Z,30.33
2022-12-04T22:56:30.348Z,30.13
2022-12-04T22:58:58.502Z,30.80
2022-12-04T23:01:29.811Z,29.25
2022-12-04T23:03:57.152Z,29.95
2022-12-04T23:06:26.339Z,31.70
2022-12-04T23:09:05.507Z,30.45
2022-12-04T23:11:32.618Z,29.85
2022-12-04T23:14:02.537Z,29.55
2022-12-04T23:16:31.777Z,32.53
2022-12-04T23:18:59.331Z,28.92
2022-12-04T23:21:26.629Z,28.73
2022-12-04T23:23:54.597Z,31.08
2022-12-04T23:26:25.162Z,29.08
2022-12-04T23:28:52.278Z,28.48
2022-12-04T23:31:19.360Z,30.90
2022-12-04T23:33:46.489Z,30.52
2022-12-04T23:36:14.583Z,29.33
2022-12-04T23:38:42.989Z,27.83
2022-12-04T23:41:23.323Z,26.90
2022-12-04T23:43:51.762Z,26.70
2022-12-04T23:46:22.870Z,28.02
2022-12-04T23:48:50.410Z,28.10
2022-12-04T23:51:19.180Z,29.30
2022-12-04T23:53:47.204Z,29.67
2022-12-04T23:56:19.039Z,28.67
2022-12-04T23:58:48.007Z,28.60
